Terminal Aerodrome Forecast
Issued by NWS Cleveland, OH

Home | Current Version | Previous Version | Graphics & Text | Print | Product List | Glossary Off
Versions: 1 2 3 4 5 6 7 8 9 10 11 12 13 14 15 16 17 18 19 20 21 22

000
FTUS41 KCLE 011400 AAB
TAFTOL
TAF AMD
KTOL 011402Z 0114/0212 03004KT P6SM SCT003
     FM011600 05005KT P6SM BKN020
     FM011800 07005KT P6SM BKN035
     FM012200 09003KT P6SM SCT035
     FM020400 09003KT 3SM BR SCT003
     FM020800 09003KT 2SM BR BKN003=

USA.gov is the U.S. government's official web portal to all federal, state and local government web resources and services.